sensor_id;sensor_type;location;lat;lon;timestamp;P1;durP1;ratioP1;P2;durP2;ratioP2
76113;SDS011;64845;53.086;5.834;2023-02-26T00:02:05;7.47;;;1.42;;
76113;SDS011;64845;53.086;5.834;2023-02-26T00:04:31;5.22;;;1.45;;
76113;SDS011;64845;53.086;5.834;2023-02-26T00:06:56;9.32;;;2.40;;
76113;SDS011;64845;53.086;5.834;2023-02-26T00:09:22;3.30;;;0.90;;
76113;SDS011;64845;53.086;5.834;2023-02-26T00:11:48;7.32;;;1.30;;
76113;SDS011;64845;53.086;5.834;2023-02-26T00:14:14;7.90;;;0.82;;
76113;SDS011;64845;53.086;5.834;2023-02-26T00:16:41;3.85;;;0.95;;
76113;SDS011;64845;53.086;5.834;2023-02-26T00:19:09;4.28;;;1.00;;
76113;SDS011;64845;53.086;5.834;2023-02-26T00:21:36;3.83;;;0.82;;
76113;SDS011;64845;53.086;5.834;2023-02-26T00:24:02;3.95;;;0.90;;
76113;SDS011;64845;53.086;5.834;2023-02-26T00:26:28;6.75;;;1.20;;
76113;SDS011;64845;53.086;5.834;2023-02-26T00:28:55;7.18;;;1.13;;
76113;SDS011;64845;53.086;5.834;2023-02-26T00:31:21;4.68;;;1.10;;
76113;SDS011;64845;53.086;5.834;2023-02-26T00:33:51;5.07;;;1.00;;
76113;SDS011;64845;53.086;5.834;2023-02-26T00:36:21;4.97;;;1.25;;
76113;SDS011;64845;53.086;5.834;2023-02-26T00:41:48;7.45;;;0.98;;
76113;SDS011;64845;53.086;5.834;2023-02-26T00:44:14;7.53;;;1.30;;
76113;SDS011;64845;53.086;5.834;2023-02-26T00:49:14;4.47;;;1.30;;
76113;SDS011;64845;53.086;5.834;2023-02-26T00:51:52;7.30;;;1.05;;
76113;SDS011;64845;53.086;5.834;2023-02-26T00:54:22;4.70;;;1.05;;
76113;SDS011;64845;53.086;5.834;2023-02-26T00:56:52;3.95;;;1.20;;
76113;SDS011;64845;53.086;5.834;2023-02-26T00:59:18;4.45;;;1.05;;
76113;SDS011;64845;53.086;5.834;2023-02-26T01:01:45;4.70;;;1.08;;
76113;SDS011;64845;53.086;5.834;2023-02-26T01:04:11;5.80;;;1.10;;
76113;SDS011;64845;53.086;5.834;2023-02-26T01:06:41;4.93;;;1.00;;
76113;SDS011;64845;53.086;5.834;2023-02-26T01:09:16;2.88;;;0.85;;
76113;SDS011;64845;53.086;5.834;2023-02-26T01:11:51;4.13;;;1.05;;
76113;SDS011;64845;53.086;5.834;2023-02-26T01:14:17;8.20;;;1.42;;
76113;SDS011;64845;53.086;5.834;2023-02-26T01:25:07;5.28;;;1.00;;
76113;SDS011;64845;53.086;5.834;2023-02-26T01:27:34;3.28;;;0.85;;
76113;SDS011;64845;53.086;5.834;2023-02-26T01:30:00;7.75;;;0.93;;
76113;SDS011;64845;53.086;5.834;2023-02-26T01:43:11;5.15;;;1.00;;
76113;SDS011;64845;53.086;5.834;2023-02-26T01:45:59;5.10;;;1.00;;
76113;SDS011;64845;53.086;5.834;2023-02-26T01:48:37;3.92;;;1.15;;
76113;SDS011;64845;53.086;5.834;2023-02-26T01:51:12;4.03;;;0.80;;
76113;SDS011;64845;53.086;5.834;2023-02-26T01:53:37;5.78;;;0.80;;
76113;SDS011;64845;53.086;5.834;2023-02-26T01:56:05;7.15;;;0.90;;
76113;SDS011;64845;53.086;5.834;2023-02-26T01:58:37;3.67;;;0.77;;
76113;SDS011;64845;53.086;5.834;2023-02-26T02:01:03;5.78;;;1.27;;
76113;SDS011;64845;53.086;5.834;2023-02-26T02:03:30;3.92;;;1.00;;
76113;SDS011;64845;53.086;5.834;2023-02-26T02:06:06;6.47;;;1.13;;
76113;SDS011;64845;53.086;5.834;2023-02-26T02:08:35;6.03;;;1.10;;
76113;SDS011;64845;53.086;5.834;2023-02-26T02:11:02;3.35;;;1.00;;
76113;SDS011;64845;53.086;5.834;2023-02-26T02:13:35;6.00;;;0.95;;
76113;SDS011;64845;53.086;5.834;2023-02-26T02:16:17;5.53;;;1.00;;
76113;SDS011;64845;53.086;5.834;2023-02-26T02:24:24;3.90;;;1.15;;
76113;SDS011;64845;53.086;5.834;2023-02-26T02:33:14;3.92;;;0.90;;
76113;SDS011;64845;53.086;5.834;2023-02-26T02:35:45;5.15;;;1.02;;
76113;SDS011;64845;53.086;5.834;2023-02-26T02:38:22;8.27;;;1.23;;
76113;SDS011;64845;53.086;5.834;2023-02-26T02:40:51;3.97;;;1.05;;
76113;SDS011;64845;53.086;5.834;2023-02-26T02:43:22;3.95;;;0.80;;
76113;SDS011;64845;53.086;5.834;2023-02-26T02:48:27;4.53;;;0.93;;
76113;SDS011;64845;53.086;5.834;2023-02-26T02:51:13;6.75;;;1.63;;
76113;SDS011;64845;53.086;5.834;2023-02-26T02:53:48;3.88;;;1.00;;
76113;SDS011;64845;53.086;5.834;2023-02-26T02:59:15;6.13;;;1.23;;
76113;SDS011;64845;53.086;5.834;2023-02-26T03:01:47;3.85;;;1.38;;
76113;SDS011;64845;53.086;5.834;2023-02-26T03:04:18;4.32;;;0.85;;
76113;SDS011;64845;53.086;5.834;2023-02-26T03:06:43;4.32;;;0.90;;
76113;SDS011;64845;53.086;5.834;2023-02-26T03:09:11;4.35;;;1.00;;
76113;SDS011;64845;53.086;5.834;2023-02-26T03:11:37;6.53;;;1.13;;
76113;SDS011;64845;53.086;5.834;2023-02-26T03:14:04;9.45;;;1.15;;
76113;SDS011;64845;53.086;5.834;2023-02-26T03:22:06;4.38;;;1.00;;
76113;SDS011;64845;53.086;5.834;2023-02-26T03:24:45;4.05;;;0.95;;
76113;SDS011;64845;53.086;5.834;2023-02-26T03:38:16;3.85;;;0.93;;
76113;SDS011;64845;53.086;5.834;2023-02-26T03:41:08;5.28;;;0.70;;
76113;SDS011;64845;53.086;5.834;2023-02-26T03:46:23;7.05;;;1.17;;
76113;SDS011;64845;53.086;5.834;2023-02-26T03:48:53;4.30;;;0.90;;
76113;SDS011;64845;53.086;5.834;2023-02-26T03:51:21;3.58;;;0.95;;
76113;SDS011;64845;53.086;5.834;2023-02-26T03:56:24;4.43;;;1.13;;
76113;SDS011;64845;53.086;5.834;2023-02-26T03:58:51;2.55;;;0.80;;
76113;SDS011;64845;53.086;5.834;2023-02-26T04:01:19;7.63;;;0.88;;
76113;SDS011;64845;53.086;5.834;2023-02-26T04:03:59;4.95;;;1.13;;
76113;SDS011;64845;53.086;5.834;2023-02-26T04:06:30;4.15;;;1.10;;
76113;SDS011;64845;53.086;5.834;2023-02-26T04:08:57;5.18;;;1.30;;
76113;SDS011;64845;53.086;5.834;2023-02-26T04:11:22;5.07;;;0.82;;
76113;SDS011;64845;53.086;5.834;2023-02-26T04:13:49;6.10;;;0.98;;
76113;SDS011;64845;53.086;5.834;2023-02-26T04:16:15;7.85;;;1.20;;
76113;SDS011;64845;53.086;5.834;2023-02-26T04:18:42;4.45;;;0.80;;
76113;SDS011;64845;53.086;5.834;2023-02-26T04:21:12;10.98;;;1.23;;
76113;SDS011;64845;53.086;5.834;2023-02-26T04:23:39;5.78;;;0.85;;
76113;SDS011;64845;53.086;5.834;2023-02-26T04:26:05;4.35;;;0.70;;
76113;SDS011;64845;53.086;5.834;2023-02-26T04:28:30;6.35;;;1.02;;
76113;SDS011;64845;53.086;5.834;2023-02-26T04:30:56;10.60;;;1.17;;
76113;SDS011;64845;53.086;5.834;2023-02-26T04:33:21;5.32;;;1.13;;
76113;SDS011;64845;53.086;5.834;2023-02-26T04:35:47;11.57;;;1.05;;
76113;SDS011;64845;53.086;5.834;2023-02-26T04:38:12;4.65;;;0.82;;
76113;SDS011;64845;53.086;5.834;2023-02-26T04:40:38;3.63;;;0.75;;
76113;SDS011;64845;53.086;5.834;2023-02-26T04:43:04;4.15;;;1.20;;
76113;SDS011;64845;53.086;5.834;2023-02-26T04:45:30;6.95;;;1.27;;
76113;SDS011;64845;53.086;5.834;2023-02-26T04:47:56;12.20;;;1.52;;
76113;SDS011;64845;53.086;5.834;2023-02-26T04:50:21;5.13;;;1.05;;
76113;SDS011;64845;53.086;5.834;2023-02-26T04:52:46;4.15;;;1.35;;
76113;SDS011;64845;53.086;5.834;2023-02-26T04:55:12;8.07;;;1.52;;
76113;SDS011;64845;53.086;5.834;2023-02-26T04:57:38;4.90;;;1.02;;
76113;SDS011;64845;53.086;5.834;2023-02-26T05:00:04;3.83;;;1.17;;
76113;SDS011;64845;53.086;5.834;2023-02-26T05:02:31;5.25;;;0.80;;
76113;SDS011;64845;53.086;5.834;2023-02-26T05:04:57;6.70;;;1.02;;
76113;SDS011;64845;53.086;5.834;2023-02-26T05:07:23;8.07;;;1.17;;
76113;SDS011;64845;53.086;5.834;2023-02-26T05:09:48;5.63;;;0.82;;
76113;SDS011;64845;53.086;5.834;2023-02-26T05:12:13;2.83;;;0.85;;
76113;SDS011;64845;53.086;5.834;2023-02-26T05:14:40;4.03;;;0.80;;
76113;SDS011;64845;53.086;5.834;2023-02-26T05:17:05;5.75;;;0.90;;
76113;SDS011;64845;53.086;5.834;2023-02-26T05:19:30;2.50;;;0.88;;
76113;SDS011;64845;53.086;5.834;2023-02-26T05:21:56;6.38;;;1.45;;
76113;SDS011;64845;53.086;5.834;2023-02-26T05:24:21;3.90;;;0.70;;
76113;SDS011;64845;53.086;5.834;2023-02-26T05:26:47;7.82;;;1.08;;
76113;SDS011;64845;53.086;5.834;2023-02-26T05:29:12;5.22;;;0.90;;
76113;SDS011;64845;53.086;5.834;2023-02-26T05:31:38;13.90;;;1.38;;
76113;SDS011;64845;53.086;5.834;2023-02-26T05:34:03;4.50;;;0.63;;
76113;SDS011;64845;53.086;5.834;2023-02-26T05:36:28;5.15;;;0.90;;
76113;SDS011;64845;53.086;5.834;2023-02-26T05:38:54;5.65;;;0.88;;
76113;SDS011;64845;53.086;5.834;2023-02-26T05:41:19;6.80;;;1.20;;
76113;SDS011;64845;53.086;5.834;2023-02-26T05:43:45;5.13;;;1.08;;
76113;SDS011;64845;53.086;5.834;2023-02-26T05:46:10;4.35;;;0.95;;
76113;SDS011;64845;53.086;5.834;2023-02-26T05:48:35;3.72;;;1.20;;
76113;SDS011;64845;53.086;5.834;2023-02-26T05:51:01;4.82;;;1.15;;
76113;SDS011;64845;53.086;5.834;2023-02-26T05:53:27;6.97;;;1.08;;
76113;SDS011;64845;53.086;5.834;2023-02-26T05:55:52;4.88;;;0.60;;
76113;SDS011;64845;53.086;5.834;2023-02-26T05:58:18;3.92;;;0.88;;
76113;SDS011;64845;53.086;5.834;2023-02-26T06:00:43;5.70;;;1.00;;
76113;SDS011;64845;53.086;5.834;2023-02-26T06:03:09;4.28;;;1.02;;
76113;SDS011;64845;53.086;5.834;2023-02-26T06:05:34;5.45;;;1.10;;
76113;SDS011;64845;53.086;5.834;2023-02-26T06:08:01;3.58;;;1.13;;
76113;SDS011;64845;53.086;5.834;2023-02-26T06:10:27;7.63;;;1.05;;
76113;SDS011;64845;53.086;5.834;2023-02-26T06:12:53;6.32;;;0.80;;
76113;SDS011;64845;53.086;5.834;2023-02-26T06:15:18;3.90;;;0.80;;
76113;SDS011;64845;53.086;5.834;2023-02-26T06:17:44;5.28;;;1.08;;
76113;SDS011;64845;53.086;5.834;2023-02-26T06:20:09;6.05;;;0.82;;
76113;SDS011;64845;53.086;5.834;2023-02-26T06:22:36;4.30;;;0.73;;
76113;SDS011;64845;53.086;5.834;2023-02-26T06:25:02;6.22;;;1.13;;
76113;SDS011;64845;53.086;5.834;2023-02-26T06:27:28;4.40;;;0.90;;
76113;SDS011;64845;53.086;5.834;2023-02-26T06:29:53;3.13;;;1.00;;
76113;SDS011;64845;53.086;5.834;2023-02-26T06:32:19;4.32;;;0.80;;
76113;SDS011;64845;53.086;5.834;2023-02-26T06:34:44;3.72;;;0.80;;
76113;SDS011;64845;53.086;5.834;2023-02-26T06:37:10;9.18;;;1.08;;
76113;SDS011;64845;53.086;5.834;2023-02-26T06:39:35;5.40;;;0.80;;
76113;SDS011;64845;53.086;5.834;2023-02-26T06:42:00;3.83;;;0.90;;
76113;SDS011;64845;53.086;5.834;2023-02-26T06:44:26;7.70;;;1.10;;
76113;SDS011;64845;53.086;5.834;2023-02-26T06:46:51;2.45;;;0.93;;
76113;SDS011;64845;53.086;5.834;2023-02-26T06:49:16;3.45;;;0.90;;
76113;SDS011;64845;53.086;5.834;2023-02-26T06:51:42;7.75;;;1.00;;
76113;SDS011;64845;53.086;5.834;2023-02-26T06:54:07;3.13;;;1.00;;
76113;SDS011;64845;53.086;5.834;2023-02-26T06:56:33;3.83;;;0.68;;
76113;SDS011;64845;53.086;5.834;2023-02-26T06:58:58;6.30;;;1.50;;
76113;SDS011;64845;53.086;5.834;2023-02-26T07:01:23;4.68;;;0.75;;
76113;SDS011;64845;53.086;5.834;2023-02-26T07:03:49;6.28;;;1.15;;
76113;SDS011;64845;53.086;5.834;2023-02-26T07:06:15;0.75;;;0.75;;
76113;SDS011;64845;53.086;5.834;2023-02-26T07:08:41;4.82;;;1.52;;
76113;SDS011;64845;53.086;5.834;2023-02-26T07:11:06;2.88;;;0.73;;
76113;SDS011;64845;53.086;5.834;2023-02-26T07:13:34;3.83;;;0.82;;
76113;SDS011;64845;53.086;5.834;2023-02-26T07:16:03;5.75;;;0.90;;
76113;SDS011;64845;53.086;5.834;2023-02-26T07:18:31;3.10;;;1.02;;
76113;SDS011;64845;53.086;5.834;2023-02-26T07:21:00;3.10;;;0.70;;
76113;SDS011;64845;53.086;5.834;2023-02-26T07:23:26;5.53;;;1.50;;
76113;SDS011;64845;53.086;5.834;2023-02-26T07:25:51;3.28;;;1.00;;
76113;SDS011;64845;53.086;5.834;2023-02-26T07:28:17;3.92;;;0.95;;
76113;SDS011;64845;53.086;5.834;2023-02-26T07:30:42;3.30;;;0.70;;
76113;SDS011;64845;53.086;5.834;2023-02-26T07:33:08;7.70;;;1.02;;
76113;SDS011;64845;53.086;5.834;2023-02-26T07:35:34;5.97;;;1.00;;
76113;SDS011;64845;53.086;5.834;2023-02-26T07:37:59;4.32;;;1.00;;
76113;SDS011;64845;53.086;5.834;2023-02-26T07:40:25;5.07;;;1.08;;
76113;SDS011;64845;53.086;5.834;2023-02-26T07:42:50;6.90;;;1.30;;
76113;SDS011;64845;53.086;5.834;2023-02-26T07:45:16;9.32;;;1.08;;
76113;SDS011;64845;53.086;5.834;2023-02-26T07:47:46;4.03;;;1.38;;
76113;SDS011;64845;53.086;5.834;2023-02-26T07:50:12;4.38;;;1.00;;
76113;SDS011;64845;53.086;5.834;2023-02-26T07:52:38;2.97;;;1.10;;
76113;SDS011;64845;53.086;5.834;2023-02-26T07:55:04;2.60;;;0.68;;
76113;SDS011;64845;53.086;5.834;2023-02-26T07:57:29;7.13;;;1.48;;
76113;SDS011;64845;53.086;5.834;2023-02-26T07:59:55;3.80;;;0.95;;
76113;SDS011;64845;53.086;5.834;2023-02-26T08:02:20;2.65;;;0.90;;
76113;SDS011;64845;53.086;5.834;2023-02-26T08:04:47;2.50;;;0.80;;
76113;SDS011;64845;53.086;5.834;2023-02-26T08:07:13;4.68;;;0.90;;
76113;SDS011;64845;53.086;5.834;2023-02-26T08:09:38;3.60;;;1.15;;
76113;SDS011;64845;53.086;5.834;2023-02-26T08:12:04;5.22;;;1.00;;
76113;SDS011;64845;53.086;5.834;2023-02-26T08:14:29;2.80;;;1.02;;
76113;SDS011;64845;53.086;5.834;2023-02-26T08:16:54;2.78;;;0.85;;
76113;SDS011;64845;53.086;5.834;2023-02-26T08:19:20;11.60;;;1.20;;
76113;SDS011;64845;53.086;5.834;2023-02-26T08:21:45;3.83;;;1.13;;
76113;SDS011;64845;53.086;5.834;2023-02-26T08:24:11;3.55;;;0.98;;
76113;SDS011;64845;53.086;5.834;2023-02-26T08:26:36;8.90;;;1.40;;
76113;SDS011;64845;53.086;5.834;2023-02-26T08:29:02;8.48;;;1.10;;
76113;SDS011;64845;53.086;5.834;2023-02-26T08:31:28;5.18;;;0.80;;
76113;SDS011;64845;53.086;5.834;2023-02-26T08:33:53;7.57;;;1.45;;
76113;SDS011;64845;53.086;5.834;2023-02-26T08:36:19;6.38;;;1.42;;
76113;SDS011;64845;53.086;5.834;2023-02-26T08:38:47;3.60;;;1.23;;
76113;SDS011;64845;53.086;5.834;2023-02-26T08:41:13;5.47;;;0.90;;
76113;SDS011;64845;53.086;5.834;2023-02-26T08:43:38;7.43;;;0.95;;
76113;SDS011;64845;53.086;5.834;2023-02-26T08:46:04;7.18;;;1.20;;
76113;SDS011;64845;53.086;5.834;2023-02-26T08:48:30;8.93;;;1.45;;
76113;SDS011;64845;53.086;5.834;2023-02-26T08:50:55;3.25;;;1.00;;
76113;SDS011;64845;53.086;5.834;2023-02-26T08:53:20;10.15;;;1.17;;
76113;SDS011;64845;53.086;5.834;2023-02-26T08:55:47;3.75;;;0.70;;
76113;SDS011;64845;53.086;5.834;2023-02-26T08:58:16;1.85;;;0.80;;
76113;SDS011;64845;53.086;5.834;2023-02-26T09:00:42;5.65;;;0.98;;
76113;SDS011;64845;53.086;5.834;2023-02-26T09:03:08;6.85;;;0.85;;
76113;SDS011;64845;53.086;5.834;2023-02-26T09:05:34;9.23;;;1.20;;
76113;SDS011;64845;53.086;5.834;2023-02-26T09:07:59;5.38;;;0.90;;
76113;SDS011;64845;53.086;5.834;2023-02-26T09:10:24;5.88;;;0.98;;
76113;SDS011;64845;53.086;5.834;2023-02-26T09:12:50;3.95;;;0.95;;
76113;SDS011;64845;53.086;5.834;2023-02-26T09:15:15;11.45;;;1.75;;
76113;SDS011;64845;53.086;5.834;2023-02-26T09:17:41;3.33;;;0.93;;
76113;SDS011;64845;53.086;5.834;2023-02-26T09:20:07;3.28;;;0.88;;
76113;SDS011;64845;53.086;5.834;2023-02-26T09:22:34;2.30;;;0.80;;
76113;SDS011;64845;53.086;5.834;2023-02-26T09:24:59;2.83;;;0.88;;
76113;SDS011;64845;53.086;5.834;2023-02-26T09:27:25;3.65;;;1.02;;
76113;SDS011;64845;53.086;5.834;2023-02-26T09:29:50;2.22;;;0.60;;
76113;SDS011;64845;53.086;5.834;2023-02-26T09:32:16;1.55;;;0.68;;
76113;SDS011;64845;53.086;5.834;2023-02-26T09:34:41;4.47;;;0.95;;
76113;SDS011;64845;53.086;5.834;2023-02-26T09:37:07;5.60;;;0.80;;
76113;SDS011;64845;53.086;5.834;2023-02-26T09:39:34;3.63;;;1.00;;
76113;SDS011;64845;53.086;5.834;2023-02-26T09:42:23;6.93;;;0.85;;
76113;SDS011;64845;53.086;5.834;2023-02-26T09:44:53;9.50;;;1.17;;
76113;SDS011;64845;53.086;5.834;2023-02-26T09:47:30;6.88;;;1.13;;
76113;SDS011;64845;53.086;5.834;2023-02-26T09:50:08;2.22;;;0.73;;
76113;SDS011;64845;53.086;5.834;2023-02-26T09:52:42;5.40;;;0.70;;
76113;SDS011;64845;53.086;5.834;2023-02-26T09:55:35;5.78;;;1.02;;
76113;SDS011;64845;53.086;5.834;2023-02-26T09:58:04;3.40;;;0.90;;
76113;SDS011;64845;53.086;5.834;2023-02-26T10:00:42;2.45;;;0.63;;
76113;SDS011;64845;53.086;5.834;2023-02-26T10:08:26;10.63;;;2.20;;
76113;SDS011;64845;53.086;5.834;2023-02-26T10:11:16;3.85;;;1.20;;
76113;SDS011;64845;53.086;5.834;2023-02-26T10:13:53;6.43;;;2.17;;
76113;SDS011;64845;53.086;5.834;2023-02-26T10:16:26;3.15;;;0.88;;
76113;SDS011;64845;53.086;5.834;2023-02-26T10:19:03;3.58;;;1.00;;
76113;SDS011;64845;53.086;5.834;2023-02-26T10:21:42;4.17;;;1.00;;
76113;SDS011;64845;53.086;5.834;2023-02-26T10:24:16;7.65;;;1.30;;
76113;SDS011;64845;53.086;5.834;2023-02-26T10:35:14;3.38;;;1.10;;
76113;SDS011;64845;53.086;5.834;2023-02-26T10:37:58;5.75;;;0.90;;
76113;SDS011;64845;53.086;5.834;2023-02-26T10:40:33;3.90;;;1.33;;
76113;SDS011;64845;53.086;5.834;2023-02-26T10:43:07;4.25;;;1.05;;
76113;SDS011;64845;53.086;5.834;2023-02-26T10:50:51;5.13;;;1.77;;
76113;SDS011;64845;53.086;5.834;2023-02-26T10:53:19;4.80;;;1.20;;
76113;SDS011;64845;53.086;5.834;2023-02-26T10:55:47;5.45;;;1.45;;
76113;SDS011;64845;53.086;5.834;2023-02-26T11:00:49;9.10;;;1.30;;
76113;SDS011;64845;53.086;5.834;2023-02-26T11:03:19;5.72;;;2.30;;
76113;SDS011;64845;53.086;5.834;2023-02-26T11:05:45;10.38;;;2.72;;
76113;SDS011;64845;53.086;5.834;2023-02-26T11:08:19;11.95;;;2.35;;
76113;SDS011;64845;53.086;5.834;2023-02-26T11:10:51;5.78;;;1.13;;
76113;SDS011;64845;53.086;5.834;2023-02-26T11:13:20;8.75;;;1.10;;
76113;SDS011;64845;53.086;5.834;2023-02-26T11:15:47;4.25;;;1.17;;
76113;SDS011;64845;53.086;5.834;2023-02-26T11:18:17;6.85;;;1.20;;
76113;SDS011;64845;53.086;5.834;2023-02-26T11:20:47;2.65;;;1.10;;
76113;SDS011;64845;53.086;5.834;2023-02-26T11:23:15;9.50;;;1.20;;
76113;SDS011;64845;53.086;5.834;2023-02-26T11:25:42;6.07;;;0.90;;
76113;SDS011;64845;53.086;5.834;2023-02-26T11:28:20;1.88;;;0.80;;
76113;SDS011;64845;53.086;5.834;2023-02-26T11:30:48;3.72;;;1.10;;
76113;SDS011;64845;53.086;5.834;2023-02-26T11:33:28;7.18;;;1.20;;
76113;SDS011;64845;53.086;5.834;2023-02-26T11:36:00;2.45;;;0.77;;
76113;SDS011;64845;53.086;5.834;2023-02-26T11:38:30;6.07;;;0.80;;
76113;SDS011;64845;53.086;5.834;2023-02-26T11:40:56;2.47;;;0.80;;
76113;SDS011;64845;53.086;5.834;2023-02-26T11:43:23;7.53;;;1.00;;
76113;SDS011;64845;53.086;5.834;2023-02-26T11:45:57;3.40;;;1.00;;
76113;SDS011;64845;53.086;5.834;2023-02-26T11:48:26;7.50;;;1.42;;
76113;SDS011;64845;53.086;5.834;2023-02-26T11:50:58;4.30;;;1.15;;
76113;SDS011;64845;53.086;5.834;2023-02-26T11:55:52;6.13;;;1.23;;
76113;SDS011;64845;53.086;5.834;2023-02-26T11:58:25;6.75;;;1.10;;
76113;SDS011;64845;53.086;5.834;2023-02-26T12:00:56;5.75;;;1.00;;
76113;SDS011;64845;53.086;5.834;2023-02-26T12:03:26;7.38;;;1.20;;
76113;SDS011;64845;53.086;5.834;2023-02-26T12:05:53;3.40;;;0.90;;
76113;SDS011;64845;53.086;5.834;2023-02-26T12:08:22;6.03;;;1.00;;
76113;SDS011;64845;53.086;5.834;2023-02-26T12:11:29;7.03;;;1.05;;
76113;SDS011;64845;53.086;5.834;2023-02-26T12:19:41;7.28;;;1.10;;
76113;SDS011;64845;53.086;5.834;2023-02-26T12:43:54;2.88;;;0.80;;
76113;SDS011;64845;53.086;5.834;2023-02-26T13:08:48;4.25;;;0.77;;
76113;SDS011;64845;53.086;5.834;2023-02-26T13:20:16;5.88;;;1.00;;
76113;SDS011;64845;53.086;5.834;2023-02-26T13:22:50;5.00;;;1.10;;
76113;SDS011;64845;53.086;5.834;2023-02-26T13:28:19;7.03;;;1.13;;
76113;SDS011;64845;53.086;5.834;2023-02-26T13:30:54;8.02;;;1.10;;
76113;SDS011;64845;53.086;5.834;2023-02-26T13:33:23;6.82;;;1.00;;
76113;SDS011;64845;53.086;5.834;2023-02-26T13:35:53;4.40;;;0.90;;
76113;SDS011;64845;53.086;5.834;2023-02-26T13:40:57;6.40;;;1.90;;
76113;SDS011;64845;53.086;5.834;2023-02-26T13:43:34;7.95;;;1.17;;
76113;SDS011;64845;53.086;5.834;2023-02-26T13:46:32;4.35;;;1.10;;
76113;SDS011;64845;53.086;5.834;2023-02-26T13:49:18;4.03;;;0.93;;
76113;SDS011;64845;53.086;5.834;2023-02-26T13:51:56;6.90;;;0.90;;
76113;SDS011;64845;53.086;5.834;2023-02-26T13:59:36;2.67;;;0.73;;
76113;SDS011;64845;53.086;5.834;2023-02-26T14:02:29;11.93;;;1.13;;
76113;SDS011;64845;53.086;5.834;2023-02-26T14:04:59;3.03;;;0.90;;
76113;SDS011;64845;53.086;5.834;2023-02-26T14:07:45;5.07;;;0.80;;
76113;SDS011;64845;53.086;5.834;2023-02-26T14:10:15;4.45;;;1.13;;
76113;SDS011;64845;53.086;5.834;2023-02-26T14:13:00;9.70;;;1.45;;
76113;SDS011;64845;53.086;5.834;2023-02-26T14:15:59;5.55;;;1.10;;
76113;SDS011;64845;53.086;5.834;2023-02-26T14:18:36;7.13;;;0.82;;
76113;SDS011;64845;53.086;5.834;2023-02-26T14:24:03;6.15;;;1.20;;
76113;SDS011;64845;53.086;5.834;2023-02-26T14:26:37;6.15;;;1.15;;
76113;SDS011;64845;53.086;5.834;2023-02-26T14:29:18;5.38;;;1.00;;
76113;SDS011;64845;53.086;5.834;2023-02-26T14:32:32;7.47;;;1.13;;
76113;SDS011;64845;53.086;5.834;2023-02-26T14:34:46;3.07;;;1.33;;
76113;SDS011;64845;53.086;5.834;2023-02-26T14:37:18;4.50;;;1.02;;
76113;SDS011;64845;53.086;5.834;2023-02-26T14:40:09;2.55;;;0.90;;
76113;SDS011;64845;53.086;5.834;2023-02-26T14:42:43;7.40;;;1.50;;
76113;SDS011;64845;53.086;5.834;2023-02-26T14:47:40;5.95;;;1.30;;
76113;SDS011;64845;53.086;5.834;2023-02-26T14:50:05;6.38;;;0.90;;
76113;SDS011;64845;53.086;5.834;2023-02-26T14:52:38;5.15;;;1.30;;
76113;SDS011;64845;53.086;5.834;2023-02-26T15:00:25;7.88;;;1.05;;
76113;SDS011;64845;53.086;5.834;2023-02-26T15:08:38;6.80;;;0.93;;
76113;SDS011;64845;53.086;5.834;2023-02-26T15:11:26;4.95;;;1.38;;
76113;SDS011;64845;53.086;5.834;2023-02-26T15:25:06;4.10;;;1.20;;
76113;SDS011;64845;53.086;5.834;2023-02-26T15:27:37;5.60;;;0.95;;
76113;SDS011;64845;53.086;5.834;2023-02-26T15:30:03;6.28;;;0.80;;
76113;SDS011;64845;53.086;5.834;2023-02-26T15:32:29;4.75;;;1.08;;
76113;SDS011;64845;53.086;5.834;2023-02-26T15:37:26;6.45;;;1.20;;
76113;SDS011;64845;53.086;5.834;2023-02-26T15:39:55;5.88;;;1.10;;
76113;SDS011;64845;53.086;5.834;2023-02-26T15:42:21;6.63;;;1.00;;
76113;SDS011;64845;53.086;5.834;2023-02-26T15:44:54;5.85;;;1.27;;
76113;SDS011;64845;53.086;5.834;2023-02-26T15:47:21;7.15;;;1.13;;
76113;SDS011;64845;53.086;5.834;2023-02-26T15:49:47;6.63;;;1.27;;
76113;SDS011;64845;53.086;5.834;2023-02-26T15:52:17;4.53;;;1.17;;
76113;SDS011;64845;53.086;5.834;2023-02-26T15:54:47;4.80;;;1.10;;
76113;SDS011;64845;53.086;5.834;2023-02-26T15:57:15;5.97;;;1.00;;
76113;SDS011;64845;53.086;5.834;2023-02-26T15:59:44;5.47;;;1.00;;
76113;SDS011;64845;53.086;5.834;2023-02-26T16:02:15;5.55;;;1.02;;
76113;SDS011;64845;53.086;5.834;2023-02-26T16:04:44;6.72;;;1.30;;
76113;SDS011;64845;53.086;5.834;2023-02-26T16:07:10;10.80;;;1.00;;
76113;SDS011;64845;53.086;5.834;2023-02-26T16:09:46;11.60;;;1.20;;
76113;SDS011;64845;53.086;5.834;2023-02-26T16:14:59;8.60;;;1.42;;
76113;SDS011;64845;53.086;5.834;2023-02-26T16:17:32;9.20;;;1.60;;
76113;SDS011;64845;53.086;5.834;2023-02-26T16:20:03;7.43;;;1.20;;
76113;SDS011;64845;53.086;5.834;2023-02-26T16:22:36;4.70;;;0.90;;
76113;SDS011;64845;53.086;5.834;2023-02-26T16:25:07;10.35;;;1.73;;
76113;SDS011;64845;53.086;5.834;2023-02-26T16:27:40;6.25;;;1.20;;
76113;SDS011;64845;53.086;5.834;2023-02-26T16:30:12;7.60;;;1.63;;
76113;SDS011;64845;53.086;5.834;2023-02-26T16:32:42;5.60;;;1.63;;
76113;SDS011;64845;53.086;5.834;2023-02-26T16:35:10;9.40;;;2.20;;
76113;SDS011;64845;53.086;5.834;2023-02-26T16:37:42;8.80;;;2.15;;
76113;SDS011;64845;53.086;5.834;2023-02-26T16:40:22;10.25;;;1.80;;
76113;SDS011;64845;53.086;5.834;2023-02-26T16:45:43;14.27;;;2.25;;
76113;SDS011;64845;53.086;5.834;2023-02-26T16:48:25;5.57;;;1.60;;
76113;SDS011;64845;53.086;5.834;2023-02-26T16:50:56;7.68;;;2.50;;
76113;SDS011;64845;53.086;5.834;2023-02-26T16:53:33;4.57;;;1.70;;
76113;SDS011;64845;53.086;5.834;2023-02-26T16:56:00;5.63;;;1.70;;
76113;SDS011;64845;53.086;5.834;2023-02-26T16:58:27;13.77;;;2.25;;
76113;SDS011;64845;53.086;5.834;2023-02-26T17:01:00;15.07;;;2.28;;
76113;SDS011;64845;53.086;5.834;2023-02-26T17:03:31;5.85;;;1.80;;
76113;SDS011;64845;53.086;5.834;2023-02-26T17:05:58;11.45;;;2.08;;
76113;SDS011;64845;53.086;5.834;2023-02-26T17:08:30;11.43;;;2.63;;
76113;SDS011;64845;53.086;5.834;2023-02-26T17:11:06;9.88;;;2.50;;
76113;SDS011;64845;53.086;5.834;2023-02-26T17:13:33;8.48;;;1.90;;
76113;SDS011;64845;53.086;5.834;2023-02-26T17:16:01;7.75;;;2.00;;
76113;SDS011;64845;53.086;5.834;2023-02-26T17:18:28;7.15;;;2.45;;
76113;SDS011;64845;53.086;5.834;2023-02-26T17:20:55;10.13;;;2.60;;
76113;SDS011;64845;53.086;5.834;2023-02-26T17:23:20;9.63;;;2.60;;
76113;SDS011;64845;53.086;5.834;2023-02-26T17:25:50;14.75;;;3.65;;
76113;SDS011;64845;53.086;5.834;2023-02-26T17:28:21;11.03;;;3.13;;
76113;SDS011;64845;53.086;5.834;2023-02-26T17:30:51;6.72;;;2.13;;
76113;SDS011;64845;53.086;5.834;2023-02-26T17:33:17;9.07;;;2.40;;
76113;SDS011;64845;53.086;5.834;2023-02-26T17:35:42;6.85;;;2.20;;
76113;SDS011;64845;53.086;5.834;2023-02-26T17:38:11;12.05;;;2.80;;
76113;SDS011;64845;53.086;5.834;2023-02-26T17:40:38;15.88;;;5.28;;
76113;SDS011;64845;53.086;5.834;2023-02-26T17:43:05;8.10;;;2.08;;
76113;SDS011;64845;53.086;5.834;2023-02-26T17:45:31;8.18;;;2.38;;
76113;SDS011;64845;53.086;5.834;2023-02-26T17:47:57;6.22;;;1.65;;
76113;SDS011;64845;53.086;5.834;2023-02-26T17:50:25;7.13;;;1.83;;
76113;SDS011;64845;53.086;5.834;2023-02-26T17:53:03;8.65;;;1.70;;
76113;SDS011;64845;53.086;5.834;2023-02-26T17:55:29;7.57;;;1.77;;
76113;SDS011;64845;53.086;5.834;2023-02-26T17:57:55;13.32;;;2.92;;
76113;SDS011;64845;53.086;5.834;2023-02-26T18:00:21;13.85;;;4.57;;
76113;SDS011;64845;53.086;5.834;2023-02-26T18:02:47;14.70;;;5.72;;
76113;SDS011;64845;53.086;5.834;2023-02-26T18:05:12;11.75;;;3.85;;
76113;SDS011;64845;53.086;5.834;2023-02-26T18:07:38;12.55;;;4.10;;
76113;SDS011;64845;53.086;5.834;2023-02-26T18:10:04;12.38;;;3.92;;
76113;SDS011;64845;53.086;5.834;2023-02-26T18:12:30;11.75;;;3.38;;